LRTR/TSR METAR and TAF weather

Enter ICAO airport designator
Station Type Date Time Source
LRTR METAR 2019/10/23 13:30 UTC NOAA

LRTR 231330Z VRB02KT CAVOK 28/07 Q1020 NOSIG


Station Type Date Time Source
LRTR Decoded METAR 2019/10/23 13:30 UTC NOAA

Timisoara, Romania (LRTR) 45-46N 021-15E 88M
Oct 23, 2019 - 09:30 AM EDT / 2019.10.23 1330 UTC
Wind: Variable at 2 MPH (2 KT):0
Visibility: greater than 7 mile(s):0
Temperature: 82 F (28 C)
Dew Point: 44 F (7 C)
Relative Humidity: 26%
Pressure (altimeter): 30.12 in. Hg (1020 hPa)
ob: LRTR 231330Z VRB02KT CAVOK 28/07 Q1020 NOSIG
cycle: 13

Station Type Date Time Source
LRTR TAF 2019/10/23 12:33 UTC NOAA

TAF LRTR 231100Z 2312/2412 09006KT CAVOK
TEMPO 2400/2406 3000 BR

Example: see airport list